createdAt,value
2023-03-10T00:01:17.743Z,10.63
2023-03-10T00:03:45.999Z,10.61
2023-03-10T00:06:15.622Z,10.55
2023-03-10T00:08:43.611Z,10.53
2023-03-10T00:11:11.409Z,10.48
2023-03-10T00:13:39.283Z,10.54
2023-03-10T00:16:07.782Z,10.56
2023-03-10T00:18:35.275Z,10.56
2023-03-10T00:21:02.527Z,10.58
2023-03-10T00:23:30.753Z,10.58
2023-03-10T00:26:00.803Z,10.62
2023-03-10T00:28:28.755Z,10.63
2023-03-10T00:31:10.810Z,10.61
2023-03-10T00:33:38.936Z,10.53
2023-03-10T00:36:24.048Z,10.55
2023-03-10T00:38:53.004Z,10.52
2023-03-10T00:41:24.159Z,10.50
2023-03-10T00:43:52.869Z,10.56
2023-03-10T00:46:20.989Z,10.65
2023-03-10T00:48:48.538Z,10.67
2023-03-10T00:51:16.064Z,10.67
2023-03-10T00:53:43.992Z,10.64
2023-03-10T00:56:15.661Z,10.64
2023-03-10T00:58:44.313Z,10.54
2023-03-10T01:01:18.159Z,10.45
2023-03-10T01:03:46.413Z,10.41
2023-03-10T01:06:14.427Z,10.37
2023-03-10T01:08:42.178Z,10.32
2023-03-10T01:11:09.629Z,10.28
2023-03-10T01:13:38.768Z,10.37
2023-03-10T01:16:07.740Z,10.31
2023-03-10T01:18:35.433Z,10.29
2023-03-10T01:21:04.581Z,10.36
2023-03-10T01:23:32.331Z,10.28
2023-03-10T01:25:59.787Z,10.27
2023-03-10T01:28:27.302Z,10.26
2023-03-10T01:30:54.536Z,10.28
2023-03-10T01:33:21.909Z,10.18
2023-03-10T01:35:49.308Z,10.23
2023-03-10T01:38:17.957Z,10.27
2023-03-10T01:40:50.316Z,10.23
2023-03-10T01:43:35.998Z,10.19
2023-03-10T01:46:32.271Z,10.22
2023-03-10T01:49:26.255Z,10.20
2023-03-10T01:52:25.011Z,10.23
2023-03-10T01:55:00.965Z,10.23
2023-03-10T01:57:33.785Z,10.24
2023-03-10T02:00:01.572Z,10.24
2023-03-10T02:02:35.312Z,10.20
2023-03-10T02:05:03.020Z,10.25
2023-03-10T02:07:34.690Z,10.22
2023-03-10T02:10:03.313Z,10.19
2023-03-10T02:12:30.809Z,10.16
2023-03-10T02:15:00.169Z,10.14
2023-03-10T02:17:28.360Z,10.13
2023-03-10T02:20:07.104Z,10.11
2023-03-10T02:22:34.694Z,10.18
2023-03-10T02:25:08.639Z,10.21
2023-03-10T02:27:39.966Z,10.15
2023-03-10T02:30:07.944Z,10.17
2023-03-10T02:32:42.296Z,10.12
2023-03-10T02:35:11.417Z,10.06
2023-03-10T02:37:50.923Z,10.06
2023-03-10T02:40:40.409Z,10.00
2023-03-10T02:43:26.293Z,10.02
2023-03-10T02:46:05.276Z,10.02
2023-03-10T02:48:36.835Z,10.04
2023-03-10T02:51:13.428Z,9.89
2023-03-10T02:53:41.651Z,9.96
2023-03-10T02:56:09.188Z,10.01
2023-03-10T02:58:38.974Z,10.03
2023-03-10T03:01:08.923Z,9.99
2023-03-10T03:03:41.042Z,9.96
2023-03-10T03:06:10.071Z,9.91
2023-03-10T03:08:37.600Z,9.88
2023-03-10T03:11:07.474Z,9.87
2023-03-10T03:13:35.389Z,9.91
2023-03-10T03:16:06.385Z,9.94
2023-03-10T03:18:34.216Z,9.83
2023-03-10T03:21:11.338Z,9.81
2023-03-10T03:23:40.305Z,9.82
2023-03-10T03:26:18.407Z,9.76
2023-03-10T03:28:46.494Z,9.79
2023-03-10T03:31:18.687Z,9.83
2023-03-10T03:33:46.659Z,9.76
2023-03-10T03:36:14.252Z,9.78
2023-03-10T03:38:42.078Z,9.74
2023-03-10T03:41:09.893Z,9.85
2023-03-10T03:43:39.113Z,9.82
2023-03-10T03:46:06.774Z,9.90
2023-03-10T03:48:34.977Z,9.95
2023-03-10T03:51:04.995Z,9.93
2023-03-10T03:53:38.368Z,9.99
2023-03-10T03:56:06.616Z,9.97
2023-03-10T03:58:36.830Z,9.87
2023-03-10T04:01:04.700Z,9.89
2023-03-10T04:03:38.743Z,9.91
2023-03-10T04:06:07.987Z,9.93
2023-03-10T04:08:35.800Z,9.91
2023-03-10T04:11:04.242Z,9.96
2023-03-10T04:13:33.170Z,10.02
2023-03-10T04:16:01.607Z,9.96
2023-03-10T04:18:34.047Z,9.92
2023-03-10T04:21:02.497Z,9.87
2023-03-10T04:23:30.757Z,10.01
2023-03-10T04:25:58.802Z,10.02
2023-03-10T04:28:27.968Z,10.03
2023-03-10T04:30:56.312Z,10.00
2023-03-10T04:33:27.241Z,9.99
2023-03-10T04:35:55.114Z,10.01
2023-03-10T04:38:24.294Z,10.01
2023-03-10T04:40:58.747Z,10.05
2023-03-10T04:43:31.089Z,10.04
2023-03-10T04:45:59.274Z,9.93
2023-03-10T04:48:27.513Z,9.96
2023-03-10T04:50:56.701Z,10.04
2023-03-10T04:53:24.982Z,9.96
2023-03-10T04:55:52.719Z,9.90
2023-03-10T04:58:22.243Z,9.94
2023-03-10T05:01:02.143Z,9.87
2023-03-10T05:03:32.422Z,9.85
2023-03-10T05:06:00.029Z,9.91
2023-03-10T05:08:28.270Z,9.88
2023-03-10T05:10:55.806Z,9.83
2023-03-10T05:13:23.434Z,9.84
2023-03-10T05:15:51.068Z,9.89
2023-03-10T05:18:18.693Z,9.78
2023-03-10T05:20:46.105Z,9.88
2023-03-10T05:23:13.779Z,9.82
2023-03-10T05:25:41.289Z,9.81
2023-03-10T05:28:08.803Z,9.77
2023-03-10T05:30:36.330Z,9.78
2023-03-10T05:33:04.043Z,9.76
2023-03-10T05:35:31.570Z,9.80
2023-03-10T05:37:59.552Z,9.78
2023-03-10T05:40:26.924Z,9.74
2023-03-10T05:42:54.297Z,9.71
2023-03-10T05:45:23.103Z,9.67
2023-03-10T05:47:51.098Z,9.62
2023-03-10T05:50:20.066Z,9.61
2023-03-10T05:52:47.535Z,9.59
2023-03-10T05:55:18.402Z,9.50
2023-03-10T05:57:46.959Z,9.40
2023-03-10T06:00:16.029Z,9.47
2023-03-10T06:02:49.243Z,9.55
2023-03-10T06:05:16.925Z,9.40
2023-03-10T06:07:44.453Z,9.51
2023-03-10T06:10:12.068Z,9.56
2023-03-10T06:12:39.523Z,9.49
2023-03-10T06:15:07.654Z,9.47
2023-03-10T06:17:35.323Z,9.46
2023-03-10T06:20:03.640Z,9.40
2023-03-10T06:22:31.474Z,9.41
2023-03-10T06:24:58.946Z,9.37
2023-03-10T06:27:26.300Z,9.35
2023-03-10T06:29:53.784Z,9.40
2023-03-10T06:32:21.342Z,9.30
2023-03-10T06:34:48.854Z,9.33
2023-03-10T06:37:16.147Z,9.29
2023-03-10T06:39:43.688Z,9.29
2023-03-10T06:42:11.226Z,9.18
2023-03-10T06:44:38.696Z,9.17
2023-03-10T06:47:06.057Z,9.18
2023-03-10T06:49:34.075Z,9.16
2023-03-10T06:52:01.683Z,9.20
2023-03-10T06:54:29.201Z,9.19
2023-03-10T06:56:56.477Z,9.19
2023-03-10T06:59:23.952Z,9.07
2023-03-10T07:01:51.385Z,9.10
2023-03-10T07:04:19.094Z,9.13
2023-03-10T07:06:46.521Z,9.15
2023-03-10T07:09:13.841Z,9.15
2023-03-10T07:11:41.215Z,9.09
2023-03-10T07:14:08.631Z,9.19
2023-03-10T07:16:36.060Z,9.12
2023-03-10T07:19:03.726Z,9.17
2023-03-10T07:21:32.202Z,9.21
2023-03-10T07:23:59.533Z,9.19
2023-03-10T07:26:26.934Z,9.19
2023-03-10T07:28:54.622Z,9.26
2023-03-10T07:31:22.256Z,9.24
2023-03-10T07:33:49.979Z,9.26
2023-03-10T07:36:19.707Z,9.18
2023-03-10T07:38:47.618Z,9.23
2023-03-10T07:41:18.681Z,9.13
2023-03-10T07:43:46.393Z,9.24
2023-03-10T07:46:15.741Z,9.24
2023-03-10T07:48:44.126Z,9.30
2023-03-10T07:51:12.618Z,9.37
2023-03-10T07:53:40.145Z,9.43
2023-03-10T07:56:08.326Z,9.41
2023-03-10T07:58:36.798Z,9.44
2023-03-10T08:01:05.734Z,9.35
2023-03-10T08:03:34.323Z,9.38
2023-03-10T08:06:02.600Z,9.45
2023-03-10T08:08:30.300Z,9.41
2023-03-10T08:11:06.229Z,9.37
2023-03-10T08:13:34.077Z,9.41
2023-03-10T08:16:02.430Z,9.43
2023-03-10T08:18:31.572Z,9.47
2023-03-10T08:20:59.945Z,9.54
2023-03-10T08:23:27.504Z,9.56
2023-03-10T08:25:55.012Z,9.63
2023-03-10T08:28:22.315Z,9.65
2023-03-10T08:31:03.658Z,9.68
2023-03-10T08:33:33.047Z,9.71
2023-03-10T08:36:04.928Z,9.70
2023-03-10T08:38:32.974Z,9.85
2023-03-10T08:41:11.005Z,9.93
2023-03-10T08:43:39.397Z,9.97
2023-03-10T08:46:08.803Z,10.35
2023-03-10T08:48:36.967Z,10.53
2023-03-10T08:51:05.590Z,10.66
2023-03-10T08:53:35.074Z,10.82
2023-03-10T08:56:02.634Z,10.97
2023-03-10T08:58:30.304Z,11.49
2023-03-10T09:00:57.909Z,11.99
2023-03-10T09:03:26.525Z,12.12
2023-03-10T09:05:55.494Z,12.12
2023-03-10T09:08:23.073Z,12.01
2023-03-10T09:10:50.702Z,11.82
2023-03-10T09:13:18.195Z,11.78
2023-03-10T09:15:45.410Z,11.85
2023-03-10T09:18:15.196Z,12.01
2023-03-10T09:20:43.821Z,12.09
2023-03-10T09:23:14.308Z,11.99
2023-03-10T09:25:41.956Z,12.02
2023-03-10T09:28:11.605Z,11.89
2023-03-10T09:30:41.115Z,11.66
2023-03-10T09:33:15.765Z,11.30
2023-03-10T09:35:52.334Z,11.23
2023-03-10T09:38:20.596Z,11.38
2023-03-10T09:41:20.286Z,11.40
2023-03-10T09:44:07.721Z,11.39
2023-03-10T09:46:50.643Z,11.48
2023-03-10T09:49:36.875Z,11.93
2023-03-10T09:52:39.275Z,12.36
2023-03-10T09:55:23.208Z,12.70
2023-03-10T09:57:54.097Z,12.94
2023-03-10T10:00:38.931Z,12.96
2023-03-10T10:03:17.511Z,13.12
2023-03-10T10:05:47.111Z,13.40
2023-03-10T10:08:54.853Z,13.51
2023-03-10T10:11:33.495Z,13.38
2023-03-10T10:14:30.363Z,13.31
2023-03-10T10:17:23.487Z,13.07
2023-03-10T10:19:53.728Z,13.07
2023-03-10T10:22:27.029Z,12.86
2023-03-10T10:25:10.454Z,12.95
2023-03-10T10:27:39.183Z,12.88
2023-03-10T10:30:33.196Z,12.89
2023-03-10T10:33:11.842Z,13.00
2023-03-10T10:35:42.516Z,12.95
2023-03-10T10:38:10.100Z,12.98
2023-03-10T10:41:21.768Z,13.01
2023-03-10T10:43:50.514Z,13.13
2023-03-10T10:46:26.144Z,13.14
2023-03-10T10:49:27.994Z,12.98
2023-03-10T10:52:04.848Z,12.99
2023-03-10T10:54:42.007Z,12.98
2023-03-10T10:57:24.387Z,12.86
2023-03-10T10:59:52.043Z,12.70
2023-03-10T11:02:32.885Z,12.74
2023-03-10T11:05:12.333Z,12.82
2023-03-10T11:07:40.263Z,12.84
2023-03-10T11:10:13.461Z,12.86
2023-03-10T11:13:05.739Z,12.81
2023-03-10T11:15:36.880Z,12.85
2023-03-10T11:18:18.883Z,13.00
2023-03-10T11:21:04.102Z,13.11
2023-03-10T11:23:53.816Z,13.02
2023-03-10T11:26:39.504Z,13.36
2023-03-10T11:29:24.156Z,13.67
2023-03-10T11:31:57.881Z,13.93
2023-03-10T11:34:30.698Z,13.87
2023-03-10T11:37:32.673Z,13.93
2023-03-10T11:40:50.140Z,13.87
2023-03-10T11:43:28.616Z,13.82
2023-03-10T11:45:59.596Z,13.77
2023-03-10T11:48:32.989Z,13.62
2023-03-10T11:51:04.022Z,13.41
2023-03-10T11:54:00.065Z,13.38
2023-03-10T11:56:28.724Z,13.39
2023-03-10T11:59:06.979Z,13.30
2023-03-10T12:01:38.544Z,13.32
2023-03-10T12:04:24.390Z,13.37
2023-03-10T12:06:55.011Z,13.44
2023-03-10T12:09:42.231Z,13.51
2023-03-10T12:12:15.729Z,13.61
2023-03-10T12:14:45.257Z,13.71
2023-03-10T12:17:15.537Z,13.46
2023-03-10T12:20:13.047Z,13.33
2023-03-10T12:22:52.137Z,13.12
2023-03-10T12:25:33.290Z,12.92
2023-03-10T12:28:16.461Z,12.92
2023-03-10T12:30:48.298Z,13.02
2023-03-10T12:33:31.027Z,13.09
2023-03-10T12:36:16.021Z,13.13
2023-03-10T12:39:18.148Z,13.09
2023-03-10T12:41:53.802Z,13.12
2023-03-10T12:44:39.848Z,13.07
2023-03-10T12:47:18.862Z,13.08
2023-03-10T12:50:16.626Z,13.07
2023-03-10T12:52:45.172Z,13.09
2023-03-10T12:55:27.931Z,13.12
2023-03-10T12:58:22.224Z,13.14
2023-03-10T13:00:57.331Z,13.01
2023-03-10T13:03:27.765Z,12.99
2023-03-10T13:06:11.116Z,12.92
2023-03-10T13:08:44.099Z,12.82
2023-03-10T13:11:51.092Z,12.66
2023-03-10T13:14:23.997Z,12.53
2023-03-10T13:17:03.118Z,12.48
2023-03-10T13:19:33.407Z,12.42
2023-03-10T13:22:01.512Z,12.41
2023-03-10T13:24:31.733Z,12.26
2023-03-10T13:27:13.050Z,12.22
2023-03-10T13:29:53.705Z,12.15
2023-03-10T13:32:21.472Z,11.99
2023-03-10T13:34:49.166Z,12.01
2023-03-10T13:37:16.760Z,12.05
2023-03-10T13:39:44.231Z,11.99
2023-03-10T13:42:28.280Z,11.96
2023-03-10T13:44:58.674Z,11.95
2023-03-10T13:47:27.146Z,11.81
2023-03-10T13:50:00.229Z,11.87
2023-03-10T13:52:30.406Z,11.88
2023-03-10T13:55:17.458Z,11.70
2023-03-10T13:57:48.038Z,11.64
2023-03-10T14:00:18.584Z,11.75
2023-03-10T14:02:48.311Z,11.68
2023-03-10T14:05:38.713Z,11.61
2023-03-10T14:08:07.484Z,11.61
2023-03-10T14:10:34.879Z,11.59
2023-03-10T14:13:02.505Z,11.48
2023-03-10T14:15:38.826Z,11.27
2023-03-10T14:18:09.414Z,11.23
2023-03-10T14:20:42.157Z,11.20
2023-03-10T14:23:18.897Z,11.14
2023-03-10T14:25:48.608Z,11.01
2023-03-10T14:28:32.378Z,10.87
2023-03-10T14:31:02.563Z,10.81
2023-03-10T14:33:30.579Z,10.84
2023-03-10T14:35:58.338Z,10.86
2023-03-10T14:38:25.912Z,10.72
2023-03-10T14:40:55.014Z,10.64
2023-03-10T14:43:27.677Z,10.48
2023-03-10T14:45:58.178Z,10.42
2023-03-10T14:48:33.537Z,10.29
2023-03-10T14:51:01.109Z,10.22
2023-03-10T14:53:28.638Z,10.17
2023-03-10T14:56:00.423Z,10.24
2023-03-10T14:58:34.734Z,10.13
2023-03-10T15:01:02.376Z,9.91
2023-03-10T15:03:29.782Z,9.90
2023-03-10T15:05:57.331Z,9.72
2023-03-10T15:08:24.780Z,9.72
2023-03-10T15:10:53.142Z,9.75
2023-03-10T15:13:23.651Z,9.64
2023-03-10T15:15:51.838Z,9.68
2023-03-10T15:18:22.076Z,9.78
2023-03-10T15:20:50.285Z,9.71
2023-03-10T15:23:22.600Z,9.61
2023-03-10T15:25:50.328Z,9.45
2023-03-10T15:28:18.032Z,9.18
2023-03-10T15:30:46.165Z,9.12
2023-03-10T15:33:13.592Z,9.06
2023-03-10T15:35:42.189Z,9.06
2023-03-10T15:38:13.861Z,8.86
2023-03-10T15:40:42.172Z,8.91
2023-03-10T15:43:09.778Z,8.66
2023-03-10T15:45:43.836Z,8.65
2023-03-10T15:48:11.843Z,8.70
2023-03-10T15:50:43.345Z,8.65
2023-03-10T15:53:10.868Z,8.50
2023-03-10T15:55:41.616Z,8.50
2023-03-10T15:58:11.085Z,8.47
2023-03-10T16:00:38.785Z,8.62
2023-03-10T16:03:06.521Z,8.50
2023-03-10T16:05:35.033Z,8.26
2023-03-10T16:08:06.236Z,8.35
2023-03-10T16:10:38.357Z,8.16
2023-03-10T16:13:06.195Z,8.10
2023-03-10T16:15:37.727Z,8.08
2023-03-10T16:18:05.504Z,8.09
2023-03-10T16:20:33.277Z,8.17
2023-03-10T16:23:00.809Z,8.18
2023-03-10T16:25:28.062Z,8.12
2023-03-10T16:27:55.796Z,8.16
2023-03-10T16:30:26.847Z,7.90
2023-03-10T16:32:54.384Z,7.79
2023-03-10T16:35:21.653Z,7.67
2023-03-10T16:37:49.000Z,7.59
2023-03-10T16:40:17.884Z,7.53
2023-03-10T16:42:46.400Z,7.52
2023-03-10T16:45:14.279Z,7.67
2023-03-10T16:47:44.043Z,7.61
2023-03-10T16:50:14.176Z,7.55
2023-03-10T16:52:42.906Z,7.53
2023-03-10T16:55:20.112Z,7.53
2023-03-10T16:57:47.697Z,7.40
2023-03-10T17:00:15.623Z,7.41
2023-03-10T17:02:43.144Z,7.41
2023-03-10T17:05:10.679Z,7.40
2023-03-10T17:07:46.532Z,7.33
2023-03-10T17:10:21.229Z,7.34
2023-03-10T17:12:48.578Z,7.32
2023-03-10T17:15:15.963Z,7.35
2023-03-10T17:17:44.006Z,7.29
2023-03-10T17:20:12.396Z,7.26
2023-03-10T17:22:40.177Z,7.29
2023-03-10T17:25:08.105Z,7.34
2023-03-10T17:27:35.544Z,7.29
2023-03-10T17:30:03.363Z,7.31
2023-03-10T17:32:30.918Z,7.30
2023-03-10T17:34:58.675Z,7.29
2023-03-10T17:37:26.214Z,7.36
2023-03-10T17:39:54.749Z,7.21
2023-03-10T17:42:23.548Z,7.14
2023-03-10T17:44:51.476Z,7.11
2023-03-10T17:47:18.986Z,7.09
2023-03-10T17:49:46.434Z,7.09
2023-03-10T17:52:13.871Z,7.12
2023-03-10T17:54:41.302Z,7.13
2023-03-10T17:57:08.822Z,7.06
2023-03-10T17:59:39.249Z,7.10
2023-03-10T18:02:06.848Z,7.05
2023-03-10T18:04:36.204Z,7.10
2023-03-10T18:07:03.748Z,7.05
2023-03-10T18:09:31.023Z,7.10
2023-03-10T18:11:58.464Z,7.03
2023-03-10T18:14:25.790Z,7.00
2023-03-10T18:16:53.209Z,7.01
2023-03-10T18:19:21.345Z,6.98
2023-03-10T18:21:49.460Z,6.92
2023-03-10T18:24:17.640Z,6.86
2023-03-10T18:26:45.790Z,7.03
2023-03-10T18:29:13.834Z,6.98
2023-03-10T18:31:41.562Z,6.96
2023-03-10T18:34:10.303Z,6.63
2023-03-10T18:36:37.930Z,6.47
2023-03-10T18:39:07.794Z,6.36
2023-03-10T18:41:36.080Z,6.35
2023-03-10T18:44:04.756Z,6.44
2023-03-10T18:46:32.324Z,6.32
2023-03-10T18:48:59.767Z,6.39
2023-03-10T18:51:28.032Z,6.54
2023-03-10T18:53:55.999Z,6.42
2023-03-10T18:56:26.075Z,6.44
2023-03-10T18:58:53.667Z,6.26
2023-03-10T19:01:21.413Z,6.31
2023-03-10T19:03:48.885Z,6.31
2023-03-10T19:06:16.450Z,6.18
2023-03-10T19:08:44.212Z,6.13
2023-03-10T19:11:12.263Z,5.91
2023-03-10T19:13:40.624Z,5.65
2023-03-10T19:16:09.970Z,5.45
2023-03-10T19:18:37.697Z,5.39
2023-03-10T19:21:05.481Z,5.28
2023-03-10T19:23:34.996Z,5.17
2023-03-10T19:26:03.781Z,4.92
2023-03-10T19:28:31.542Z,4.97
2023-03-10T19:30:59.240Z,4.84
2023-03-10T19:33:27.560Z,4.99
2023-03-10T19:36:07.893Z,5.00
2023-03-10T19:38:38.054Z,5.01
2023-03-10T19:41:10.097Z,4.99
2023-03-10T19:43:37.572Z,4.83
2023-03-10T19:46:06.435Z,4.92
2023-03-10T19:48:34.545Z,4.89
2023-03-10T19:51:02.003Z,4.78
2023-03-10T19:53:30.128Z,4.74
2023-03-10T19:56:01.073Z,4.81
2023-03-10T19:58:28.788Z,4.71
2023-03-10T20:00:58.285Z,4.64
2023-03-10T20:03:30.873Z,4.64
2023-03-10T20:05:58.490Z,4.81
2023-03-10T20:08:26.036Z,4.94
2023-03-10T20:10:53.640Z,4.89
2023-03-10T20:13:21.272Z,4.85
2023-03-10T20:15:48.698Z,4.98
2023-03-10T20:18:18.600Z,4.91
2023-03-10T20:20:45.983Z,4.88
2023-03-10T20:23:13.898Z,4.95
2023-03-10T20:25:41.420Z,4.82
2023-03-10T20:28:09.338Z,4.76
2023-03-10T20:30:37.965Z,4.86
2023-03-10T20:33:05.907Z,4.82
2023-03-10T20:35:34.089Z,4.90
2023-03-10T20:38:02.239Z,5.06
2023-03-10T20:40:29.976Z,4.97
2023-03-10T20:42:59.803Z,4.89
2023-03-10T20:45:27.885Z,4.92
2023-03-10T20:47:55.474Z,4.91
2023-03-10T20:50:23.231Z,4.89
2023-03-10T20:52:50.630Z,4.93
2023-03-10T20:55:23.126Z,4.92
2023-03-10T20:57:52.138Z,4.84
2023-03-10T21:00:22.154Z,4.75
2023-03-10T21:02:52.843Z,4.68
2023-03-10T21:05:21.121Z,4.49
2023-03-10T21:07:50.072Z,4.54
2023-03-10T21:10:17.982Z,4.58
2023-03-10T21:12:45.954Z,4.60
2023-03-10T21:15:15.814Z,4.54
2023-03-10T21:17:44.245Z,4.58
2023-03-10T21:20:16.500Z,4.57
2023-03-10T21:22:44.406Z,4.53
2023-03-10T21:25:15.925Z,4.41
2023-03-10T21:27:47.518Z,4.30
2023-03-10T21:30:17.295Z,4.31
2023-03-10T21:32:46.201Z,4.27
2023-03-10T21:35:13.779Z,4.33
2023-03-10T21:37:42.354Z,4.35
2023-03-10T21:40:12.075Z,4.21
2023-03-10T21:42:39.528Z,4.19
2023-03-10T21:45:07.413Z,4.14
2023-03-10T21:47:35.001Z,4.04
2023-03-10T21:50:02.561Z,4.09
2023-03-10T21:52:29.952Z,4.10
2023-03-10T21:54:57.540Z,4.26
2023-03-10T21:57:24.973Z,4.20
2023-03-10T21:59:52.301Z,4.20
2023-03-10T22:02:30.121Z,4.22
2023-03-10T22:04:57.920Z,4.26
2023-03-10T22:07:25.480Z,4.19
2023-03-10T22:09:53.029Z,4.13
2023-03-10T22:12:20.309Z,4.21
2023-03-10T22:14:50.364Z,4.28
2023-03-10T22:17:17.733Z,4.23
2023-03-10T22:19:48.141Z,4.14
2023-03-10T22:22:15.649Z,4.12
2023-03-10T22:24:43.779Z,4.03
2023-03-10T22:27:11.242Z,4.03
2023-03-10T22:29:38.504Z,4.04
2023-03-10T22:32:06.370Z,4.14
2023-03-10T22:34:33.794Z,4.15
2023-03-10T22:37:01.301Z,4.13
2023-03-10T22:39:28.538Z,4.19
2023-03-10T22:41:55.827Z,4.13
2023-03-10T22:44:23.280Z,4.16
2023-03-10T22:46:50.729Z,4.03
2023-03-10T22:49:18.782Z,3.99
2023-03-10T22:51:46.314Z,3.97
2023-03-10T22:54:13.745Z,3.90
2023-03-10T22:56:41.052Z,3.96
2023-03-10T22:59:08.341Z,4.03
2023-03-10T23:01:35.829Z,4.04
2023-03-10T23:04:03.203Z,4.10
2023-03-10T23:06:31.975Z,4.08
2023-03-10T23:08:59.862Z,4.10
2023-03-10T23:11:27.421Z,4.12
2023-03-10T23:13:54.803Z,4.00
2023-03-10T23:16:24.165Z,4.08
2023-03-10T23:18:52.442Z,4.11
2023-03-10T23:21:20.058Z,4.17
2023-03-10T23:23:48.278Z,4.19
2023-03-10T23:26:15.939Z,4.14
2023-03-10T23:28:43.449Z,4.10
2023-03-10T23:31:15.753Z,3.94
2023-03-10T23:33:45.150Z,3.84
2023-03-10T23:36:13.724Z,3.86
2023-03-10T23:38:41.457Z,3.95
2023-03-10T23:41:08.877Z,3.92
2023-03-10T23:43:36.583Z,3.99
2023-03-10T23:46:08.936Z,4.06
2023-03-10T23:48:36.751Z,4.09
2023-03-10T23:51:04.464Z,4.07
2023-03-10T23:53:32.041Z,4.09
2023-03-10T23:56:00.310Z,4.04
2023-03-10T23:58:29.590Z,4.13
